createdAt,value
2018-08-22T00:00:55.137Z,20.02
2018-08-22T00:03:25.666Z,20.07
2018-08-22T00:05:56.135Z,20.11
2018-08-22T00:08:31.731Z,20.12
2018-08-22T00:11:02.036Z,20.06
2018-08-22T00:13:32.280Z,20.05
2018-08-22T00:16:02.817Z,20.00
2018-08-22T00:18:33.150Z,19.95
2018-08-22T00:21:03.568Z,19.90
2018-08-22T00:23:34.106Z,19.87
2018-08-22T00:26:04.823Z,19.84
2018-08-22T00:28:35.274Z,19.84
2018-08-22T00:31:05.781Z,19.80
2018-08-22T00:33:36.306Z,19.69
2018-08-22T00:36:06.573Z,19.60
2018-08-22T00:38:37.126Z,19.53
2018-08-22T00:41:07.643Z,19.49
2018-08-22T00:43:37.992Z,19.49
2018-08-22T00:46:08.634Z,19.43
2018-08-22T00:48:38.916Z,19.41
2018-08-22T00:51:09.394Z,19.39
2018-08-22T00:53:39.575Z,19.34
2018-08-22T00:56:09.808Z,19.30
2018-08-22T00:58:40.247Z,19.28
2018-08-22T01:01:10.784Z,19.28
2018-08-22T01:03:41.219Z,19.20
2018-08-22T01:06:11.545Z,19.14
2018-08-22T01:08:41.884Z,19.11
2018-08-22T01:11:12.323Z,19.10
2018-08-22T01:13:42.684Z,19.10
2018-08-22T01:16:13.330Z,19.10
2018-08-22T01:18:43.770Z,19.09
2018-08-22T01:21:14.193Z,19.01
2018-08-22T01:23:44.851Z,18.94
2018-08-22T01:26:15.476Z,18.91
2018-08-22T01:28:46.219Z,18.88
2018-08-22T01:31:16.665Z,18.84
2018-08-22T01:33:47.303Z,18.81
2018-08-22T01:36:17.846Z,18.76
2018-08-22T01:38:48.202Z,18.80
2018-08-22T01:41:18.782Z,18.79
2018-08-22T01:43:49.298Z,18.81
2018-08-22T01:46:19.866Z,18.77
2018-08-22T01:48:49.932Z,18.72
2018-08-22T01:51:20.367Z,18.66
2018-08-22T01:53:50.846Z,18.61
2018-08-22T01:56:21.121Z,18.58
2018-08-22T01:58:51.490Z,18.50
2018-08-22T02:01:21.690Z,18.54
2018-08-22T02:03:52.354Z,18.55
2018-08-22T02:06:22.735Z,18.54
2018-08-22T02:08:53.248Z,18.48
2018-08-22T02:11:23.623Z,18.43
2018-08-22T02:13:53.782Z,18.36
2018-08-22T02:16:24.234Z,18.32
2018-08-22T02:18:54.523Z,18.28
2018-08-22T02:21:25.934Z,18.25
2018-08-22T02:23:56.307Z,18.22
2018-08-22T02:26:26.606Z,18.16
2018-08-22T02:28:56.643Z,18.14
2018-08-22T02:31:26.938Z,18.11
2018-08-22T02:33:57.319Z,18.08
2018-08-22T02:36:27.655Z,18.05
2018-08-22T02:38:57.915Z,18.02
2018-08-22T02:41:28.018Z,17.98
2018-08-22T02:43:58.300Z,17.93
2018-08-22T02:46:28.851Z,17.86
2018-08-22T02:48:59.347Z,17.78
2018-08-22T02:51:29.937Z,17.73
2018-08-22T02:54:00.339Z,17.78
2018-08-22T02:56:30.727Z,17.88
2018-08-22T02:59:01.046Z,17.91
2018-08-22T03:01:31.482Z,17.88
2018-08-22T03:04:01.900Z,17.86
2018-08-22T03:06:32.575Z,17.82
2018-08-22T03:09:02.991Z,17.88
2018-08-22T03:11:33.508Z,17.81
2018-08-22T03:14:03.927Z,17.74
2018-08-22T03:16:34.359Z,17.70
2018-08-22T03:19:04.651Z,17.66
2018-08-22T03:21:35.056Z,17.63
2018-08-22T03:24:05.317Z,17.62
2018-08-22T03:26:35.697Z,17.64
2018-08-22T03:29:06.042Z,17.61
2018-08-22T03:31:36.471Z,17.59
2018-08-22T03:34:07.147Z,17.58
2018-08-22T03:36:37.311Z,17.58
2018-08-22T03:39:09.083Z,17.57
2018-08-22T03:41:39.789Z,17.61
2018-08-22T03:44:10.145Z,17.61
2018-08-22T03:46:40.799Z,17.62
2018-08-22T03:49:11.276Z,17.54
2018-08-22T03:51:41.823Z,17.51
2018-08-22T03:54:12.259Z,17.48
2018-08-22T03:56:42.631Z,17.43
2018-08-22T03:59:13.266Z,17.40
2018-08-22T04:01:43.763Z,17.38
2018-08-22T04:04:14.105Z,17.34
2018-08-22T04:06:44.368Z,17.33
2018-08-22T04:09:14.811Z,17.32
2018-08-22T04:11:45.386Z,17.30
2018-08-22T04:14:17.359Z,17.28
2018-08-22T04:16:47.814Z,17.30
2018-08-22T04:19:18.279Z,17.28
2018-08-22T04:21:48.854Z,17.26
2018-08-22T04:24:19.238Z,17.26
2018-08-22T04:26:49.635Z,17.24
2018-08-22T04:29:19.979Z,17.19
2018-08-22T04:31:50.446Z,17.19
2018-08-22T04:34:20.806Z,17.22
2018-08-22T04:36:51.200Z,17.25
2018-08-22T04:39:21.775Z,17.27
2018-08-22T04:41:52.216Z,17.26
2018-08-22T04:44:22.580Z,17.31
2018-08-22T04:46:53.131Z,17.35
2018-08-22T04:49:23.443Z,17.36
2018-08-22T04:51:53.886Z,17.40
2018-08-22T04:54:24.375Z,17.45
2018-08-22T04:56:54.628Z,17.46
2018-08-22T04:59:24.915Z,17.49
2018-08-22T05:01:55.359Z,17.58
2018-08-22T05:04:25.946Z,17.70
2018-08-22T05:06:56.720Z,17.84
2018-08-22T05:09:27.061Z,18.14
2018-08-22T05:11:57.535Z,18.41
2018-08-22T05:14:27.856Z,18.59
2018-08-22T05:16:58.261Z,18.91
2018-08-22T05:19:28.565Z,19.14
2018-08-22T05:21:58.888Z,19.56
2018-08-22T05:24:29.328Z,19.85
2018-08-22T05:26:59.639Z,20.40
2018-08-22T05:29:30.056Z,20.52
2018-08-22T05:32:00.531Z,20.95
2018-08-22T05:34:30.815Z,21.86
2018-08-22T05:37:01.479Z,22.80
2018-08-22T05:39:32.169Z,23.32
2018-08-22T05:42:02.535Z,23.39
2018-08-22T05:44:33.078Z,23.79
2018-08-22T05:47:03.631Z,24.14
2018-08-22T05:49:33.988Z,24.42
2018-08-22T05:52:04.584Z,24.09
2018-08-22T05:54:35.015Z,23.65
2018-08-22T05:57:05.351Z,23.27
2018-08-22T05:59:35.746Z,22.83
2018-08-22T06:02:06.383Z,22.76
2018-08-22T06:04:36.990Z,22.84
2018-08-22T06:07:07.636Z,23.62
2018-08-22T06:09:38.102Z,24.61
2018-08-22T06:12:21.697Z,25.50
2018-08-22T06:14:52.211Z,26.40
2018-08-22T06:17:22.782Z,27.05
2018-08-22T06:19:53.186Z,27.72
2018-08-22T06:22:23.591Z,28.29
2018-08-22T06:24:53.957Z,29.28
2018-08-22T06:27:24.591Z,28.97
2018-08-22T06:29:54.934Z,29.08
2018-08-22T06:32:25.834Z,29.03
2018-08-22T06:34:56.159Z,30.01
2018-08-22T06:37:26.510Z,28.98
2018-08-22T06:39:56.919Z,28.76
2018-08-22T06:42:27.392Z,28.55
2018-08-22T06:44:57.909Z,28.83
2018-08-22T06:47:28.388Z,29.64
2018-08-22T06:49:58.869Z,29.75
2018-08-22T06:52:29.378Z,29.20
2018-08-22T06:54:59.764Z,29.45
2018-08-22T06:57:30.191Z,30.05
2018-08-22T07:00:00.680Z,30.19
2018-08-22T07:02:31.306Z,29.10
2018-08-22T07:05:01.719Z,28.47
2018-08-22T07:07:32.132Z,30.02
2018-08-22T07:10:02.563Z,29.89
2018-08-22T07:12:33.159Z,29.33
2018-08-22T07:15:03.776Z,29.65
2018-08-22T07:17:34.164Z,30.48
2018-08-22T07:20:04.555Z,31.42
2018-08-22T07:22:34.897Z,31.83
2018-08-22T07:25:05.253Z,32.02
2018-08-22T07:27:35.559Z,31.63
2018-08-22T07:30:06.377Z,31.12
2018-08-22T07:32:36.634Z,30.70
2018-08-22T07:35:07.349Z,30.59
2018-08-22T07:37:37.811Z,31.90
2018-08-22T07:40:08.090Z,32.44
2018-08-22T07:42:38.386Z,33.57
2018-08-22T07:45:08.866Z,32.97
2018-08-22T07:47:39.494Z,32.37
2018-08-22T07:50:09.921Z,30.75
2018-08-22T07:52:49.393Z,30.34
2018-08-22T07:55:20.019Z,29.93
2018-08-22T07:57:51.983Z,29.77
2018-08-22T08:00:22.360Z,30.69
2018-08-22T08:02:57.047Z,30.70
2018-08-22T08:05:28.125Z,31.86
2018-08-22T08:07:59.575Z,30.88
2018-08-22T08:10:32.425Z,29.53
2018-08-22T08:13:03.439Z,30.87
2018-08-22T08:15:35.014Z,31.02
2018-08-22T08:18:05.623Z,31.37
2018-08-22T08:20:36.111Z,32.00
2018-08-22T08:23:06.728Z,30.76
2018-08-22T08:25:37.095Z,33.09
2018-08-22T08:28:07.723Z,30.86
2018-08-22T08:30:38.158Z,32.14
2018-08-22T08:33:08.518Z,33.60
2018-08-22T08:35:38.847Z,32.22
2018-08-22T08:38:09.259Z,33.23
2018-08-22T08:40:39.427Z,32.65
2018-08-22T08:43:09.870Z,31.08
2018-08-22T08:45:41.511Z,31.36
2018-08-22T08:48:11.958Z,32.41
2018-08-22T08:50:43.074Z,34.15
2018-08-22T08:53:13.776Z,32.07
2018-08-22T08:55:44.295Z,33.92
2018-08-22T08:58:14.946Z,35.19
2018-08-22T09:00:45.424Z,34.21
2018-08-22T09:03:15.910Z,33.81
2018-08-22T09:05:46.455Z,34.48
2018-08-22T09:08:17.073Z,35.46
2018-08-22T09:10:47.569Z,35.08
2018-08-22T09:13:17.882Z,33.59
2018-08-22T09:15:48.364Z,34.06
2018-08-22T09:18:18.732Z,36.31
2018-08-22T09:20:49.219Z,33.93
2018-08-22T09:23:29.117Z,33.46
2018-08-22T09:25:59.418Z,35.13
2018-08-22T09:28:29.901Z,35.06
2018-08-22T09:31:00.217Z,36.45
2018-08-22T09:33:30.600Z,34.22
2018-08-22T09:36:00.838Z,33.46
2018-08-22T09:38:31.239Z,34.62
2018-08-22T09:41:01.415Z,33.84
2018-08-22T09:43:31.688Z,33.28
2018-08-22T09:46:02.030Z,35.98
2018-08-22T09:48:32.267Z,36.50
2018-08-22T09:51:02.695Z,34.74
2018-08-22T09:53:33.015Z,32.85
2018-08-22T09:56:03.304Z,33.57
2018-08-22T09:58:33.519Z,33.88
2018-08-22T10:01:08.982Z,34.47
2018-08-22T10:03:53.127Z,36.83
2018-08-22T10:06:30.800Z,35.73
2018-08-22T10:09:05.238Z,34.56
2018-08-22T10:11:35.467Z,35.61
2018-08-22T10:14:06.086Z,36.13
2018-08-22T10:16:36.407Z,34.83
2018-08-22T10:19:07.240Z,34.29
2018-08-22T10:21:37.604Z,35.03
2018-08-22T10:24:19.638Z,34.63
2018-08-22T10:26:50.089Z,36.47
2018-08-22T10:29:20.470Z,35.94
2018-08-22T10:31:50.768Z,37.74
2018-08-22T10:34:20.975Z,37.05
2018-08-22T10:36:51.266Z,35.87
2018-08-22T10:39:21.496Z,35.44
2018-08-22T10:41:51.807Z,37.78
2018-08-22T10:44:22.317Z,35.90
2018-08-22T10:47:00.141Z,36.47
2018-08-22T10:49:30.615Z,35.33
2018-08-22T10:52:00.747Z,36.45
2018-08-22T10:54:31.150Z,36.83
2018-08-22T10:57:01.606Z,36.09
2018-08-22T10:59:31.875Z,36.41
2018-08-22T11:02:02.297Z,37.55
2018-08-22T11:04:33.905Z,39.18
2018-08-22T11:07:04.230Z,40.60
2018-08-22T11:09:34.486Z,40.65
2018-08-22T11:12:04.927Z,39.73
2018-08-22T11:14:35.331Z,40.11
2018-08-22T11:17:16.571Z,38.42
2018-08-22T11:19:47.346Z,39.07
2018-08-22T11:22:34.142Z,41.34
2018-08-22T11:25:20.888Z,41.58
2018-08-22T11:28:07.210Z,37.37
2018-08-22T11:30:53.890Z,39.64
2018-08-22T11:33:41.432Z,36.70
2018-08-22T11:36:09.551Z,37.42
2018-08-22T11:38:39.851Z,39.21
2018-08-22T11:41:10.196Z,40.03
2018-08-22T11:43:41.004Z,42.56
2018-08-22T11:46:11.270Z,41.77
2018-08-22T11:48:41.546Z,42.19
2018-08-22T11:51:11.979Z,41.44
2018-08-22T11:53:42.297Z,42.33
2018-08-22T11:56:12.827Z,43.87
2018-08-22T11:58:43.743Z,42.06
2018-08-22T12:01:14.502Z,41.90
2018-08-22T12:03:44.617Z,43.19
2018-08-22T12:06:14.908Z,42.68
2018-08-22T12:08:44.841Z,41.15
2018-08-22T12:11:15.039Z,43.04
2018-08-22T12:13:45.090Z,43.20
2018-08-22T12:16:15.135Z,42.60
2018-08-22T12:18:45.425Z,44.29
2018-08-22T12:21:15.993Z,45.05
2018-08-22T12:23:46.247Z,45.07
2018-08-22T12:26:16.878Z,45.06
2018-08-22T12:28:47.226Z,43.29
2018-08-22T12:31:17.703Z,40.51
2018-08-22T12:33:48.957Z,42.90
2018-08-22T12:36:19.846Z,42.18
2018-08-22T12:38:50.669Z,42.91
2018-08-22T12:41:22.200Z,41.30
2018-08-22T12:43:52.864Z,42.57
2018-08-22T12:46:24.049Z,42.00
2018-08-22T12:48:55.175Z,43.66
2018-08-22T12:51:29.956Z,43.77
2018-08-22T12:54:00.943Z,42.41
2018-08-22T12:56:31.567Z,42.36
2018-08-22T12:59:02.394Z,42.89
2018-08-22T13:01:32.875Z,43.77
2018-08-22T13:04:06.165Z,42.38
2018-08-22T13:06:36.811Z,41.92
2018-08-22T13:09:12.271Z,41.85
2018-08-22T13:11:58.703Z,44.01
2018-08-22T13:14:29.139Z,41.90
2018-08-22T13:17:02.825Z,44.36
2018-08-22T13:19:34.252Z,44.88
2018-08-22T13:22:05.267Z,43.65
2018-08-22T13:24:38.930Z,45.50
2018-08-22T13:27:11.526Z,45.08
2018-08-22T13:29:42.769Z,45.18
2018-08-22T13:32:13.275Z,44.13
2018-08-22T13:34:43.898Z,45.97
2018-08-22T13:37:14.276Z,46.76
2018-08-22T13:39:44.575Z,46.47
2018-08-22T13:42:14.732Z,46.58
2018-08-22T13:44:45.186Z,46.66
2018-08-22T13:47:15.395Z,45.57
2018-08-22T13:49:46.310Z,45.56
2018-08-22T13:52:16.917Z,46.84
2018-08-22T13:54:54.906Z,47.24
2018-08-22T13:57:25.507Z,47.83
2018-08-22T13:59:56.007Z,48.34
2018-08-22T14:02:26.570Z,47.67
2018-08-22T14:04:56.853Z,47.53
2018-08-22T14:07:27.191Z,47.94
2018-08-22T14:09:57.093Z,48.29
2018-08-22T14:12:27.721Z,47.57
2018-08-22T14:14:58.611Z,46.41
2018-08-22T14:17:29.001Z,46.35
2018-08-22T14:19:59.347Z,45.36
2018-08-22T14:22:30.422Z,45.98
2018-08-22T14:25:00.857Z,44.69
2018-08-22T14:27:31.503Z,45.44
2018-08-22T14:30:02.248Z,46.52
2018-08-22T14:32:32.484Z,46.62
2018-08-22T14:35:02.842Z,46.45
2018-08-22T14:37:34.651Z,46.90
2018-08-22T14:40:05.304Z,46.69
2018-08-22T14:42:35.392Z,45.28
2018-08-22T14:45:05.818Z,45.64
2018-08-22T14:47:35.808Z,45.44
2018-08-22T14:50:06.475Z,45.74
2018-08-22T14:52:37.257Z,46.62
2018-08-22T14:55:07.848Z,46.89
2018-08-22T14:57:38.640Z,45.75
2018-08-22T15:00:09.637Z,45.30
2018-08-22T15:02:39.868Z,44.41
2018-08-22T15:05:11.178Z,45.13
2018-08-22T15:07:41.562Z,45.84
2018-08-22T15:10:15.419Z,46.70
2018-08-22T15:12:46.982Z,46.79
2018-08-22T15:15:17.436Z,46.83
2018-08-22T15:17:48.082Z,45.61
2018-08-22T15:20:18.704Z,45.88
2018-08-22T15:22:50.796Z,45.44
2018-08-22T15:25:20.927Z,45.79
2018-08-22T15:27:51.855Z,46.15
2018-08-22T15:30:22.422Z,46.28
2018-08-22T15:32:52.859Z,46.44
2018-08-22T15:35:23.480Z,46.45
2018-08-22T15:37:54.106Z,46.22
2018-08-22T15:40:24.592Z,46.16
2018-08-22T15:42:54.922Z,46.22
2018-08-22T15:45:25.449Z,46.59
2018-08-22T15:48:09.070Z,45.33
2018-08-22T15:50:39.524Z,46.17
2018-08-22T15:53:09.934Z,46.50
2018-08-22T15:55:40.430Z,46.42
2018-08-22T15:58:11.115Z,46.31
2018-08-22T16:00:43.927Z,45.68
2018-08-22T16:03:14.311Z,46.68
2018-08-22T16:05:45.734Z,46.33
2018-08-22T16:08:20.552Z,45.54
2018-08-22T16:10:50.895Z,45.43
2018-08-22T16:13:26.258Z,45.95
2018-08-22T16:15:57.605Z,46.27
2018-08-22T16:18:28.293Z,46.84
2018-08-22T16:21:00.099Z,46.82
2018-08-22T16:23:32.794Z,46.74
2018-08-22T16:26:04.275Z,46.71
2018-08-22T16:28:54.744Z,46.95
2018-08-22T16:31:35.018Z,46.66
2018-08-22T16:34:05.747Z,46.70
2018-08-22T16:36:36.135Z,46.07
2018-08-22T16:39:07.798Z,45.61
2018-08-22T16:41:37.958Z,45.71
2018-08-22T16:44:08.623Z,45.63
2018-08-22T16:46:38.897Z,45.43
2018-08-22T16:49:09.119Z,45.00
2018-08-22T16:51:39.639Z,44.66
2018-08-22T16:54:10.774Z,44.02
2018-08-22T16:56:40.954Z,43.68
2018-08-22T16:59:12.646Z,43.51
2018-08-22T17:01:46.803Z,43.38
2018-08-22T17:04:17.608Z,43.20
2018-08-22T17:06:48.278Z,42.83
2018-08-22T17:09:19.004Z,41.99
2018-08-22T17:11:49.208Z,40.23
2018-08-22T17:14:19.609Z,38.20
2018-08-22T17:16:50.444Z,36.57
2018-08-22T17:19:20.930Z,35.28
2018-08-22T17:21:51.757Z,34.58
2018-08-22T17:24:31.756Z,33.83
2018-08-22T17:27:02.688Z,33.16
2018-08-22T17:29:33.377Z,32.58
2018-08-22T17:32:05.764Z,32.16
2018-08-22T17:34:36.192Z,31.83
2018-08-22T17:37:10.119Z,31.53
2018-08-22T17:39:40.471Z,31.13
2018-08-22T17:42:18.265Z,30.81
2018-08-22T17:44:48.860Z,30.57
2018-08-22T17:47:20.427Z,30.35
2018-08-22T17:50:08.587Z,30.12
2018-08-22T17:52:38.973Z,29.82
2018-08-22T17:55:09.388Z,29.56
2018-08-22T17:57:39.720Z,29.24
2018-08-22T18:00:09.986Z,28.92
2018-08-22T18:02:40.593Z,28.61
2018-08-22T18:05:10.950Z,28.37
2018-08-22T18:07:41.456Z,28.17
2018-08-22T18:10:11.856Z,27.90
2018-08-22T18:12:42.348Z,27.71
2018-08-22T18:15:12.587Z,27.53
2018-08-22T18:17:42.967Z,27.37
2018-08-22T18:20:13.263Z,27.20
2018-08-22T18:22:44.019Z,27.01
2018-08-22T18:25:14.533Z,26.85
2018-08-22T18:27:46.247Z,26.67
2018-08-22T18:30:18.800Z,26.57
2018-08-22T18:32:49.222Z,26.44
2018-08-22T18:35:19.636Z,26.28
2018-08-22T18:37:50.173Z,26.10
2018-08-22T18:40:22.257Z,25.91
2018-08-22T18:42:55.498Z,25.77
2018-08-22T18:45:26.874Z,25.62
2018-08-22T18:47:57.323Z,25.48
2018-08-22T18:50:27.714Z,25.35
2018-08-22T18:53:00.102Z,25.35
2018-08-22T18:55:32.187Z,25.32
2018-08-22T18:58:04.008Z,25.25
2018-08-22T19:00:38.981Z,25.16
2018-08-22T19:03:09.507Z,25.06
2018-08-22T19:05:39.970Z,25.03
2018-08-22T19:08:14.691Z,25.05
2018-08-22T19:10:46.370Z,25.08
2018-08-22T19:13:17.984Z,25.11
2018-08-22T19:15:54.710Z,24.98
2018-08-22T19:18:25.167Z,24.82
2018-08-22T19:20:58.628Z,24.60
2018-08-22T19:23:29.453Z,24.38
2018-08-22T19:26:00.885Z,24.25
2018-08-22T19:28:49.706Z,24.18
2018-08-22T19:31:20.401Z,24.10
2018-08-22T19:33:51.190Z,24.09
2018-08-22T19:36:21.728Z,24.01
2018-08-22T19:38:57.863Z,23.92
2018-08-22T19:41:33.104Z,23.89
2018-08-22T19:44:04.858Z,23.88
2018-08-22T19:46:42.411Z,23.84
2018-08-22T19:49:12.804Z,23.82
2018-08-22T19:51:43.427Z,23.82
2018-08-22T19:54:14.094Z,23.77
2018-08-22T19:56:44.770Z,23.71
2018-08-22T19:59:16.777Z,23.63
2018-08-22T20:01:47.407Z,23.54
2018-08-22T20:04:17.952Z,23.45
2018-08-22T20:06:48.367Z,23.36
2018-08-22T20:09:18.874Z,23.27
2018-08-22T20:11:49.253Z,23.24
2018-08-22T20:14:31.863Z,23.16
2018-08-22T20:17:02.378Z,23.10
2018-08-22T20:19:36.752Z,23.06
2018-08-22T20:22:08.916Z,23.01
2018-08-22T20:24:39.412Z,22.94
2018-08-22T20:27:10.138Z,22.88
2018-08-22T20:29:40.823Z,22.82
2018-08-22T20:32:16.181Z,22.74
2018-08-22T20:34:46.886Z,22.72
2018-08-22T20:37:17.482Z,22.62
2018-08-22T20:39:51.908Z,22.56
2018-08-22T20:42:22.547Z,22.50
2018-08-22T20:44:52.893Z,22.43
2018-08-22T20:47:23.177Z,22.40
2018-08-22T20:49:54.199Z,22.37
2018-08-22T20:52:24.536Z,22.36
2018-08-22T20:54:59.693Z,22.22
2018-08-22T20:57:30.112Z,22.09
2018-08-22T21:00:00.479Z,21.90
2018-08-22T21:02:30.944Z,21.82
2018-08-22T21:05:01.481Z,21.84
2018-08-22T21:07:43.144Z,21.91
2018-08-22T21:10:13.824Z,22.00
2018-08-22T21:12:44.304Z,22.12
2018-08-22T21:15:21.098Z,22.12
2018-08-22T21:17:51.283Z,22.08
2018-08-22T21:20:24.695Z,22.01
2018-08-22T21:23:01.386Z,21.93
2018-08-22T21:25:31.906Z,21.86
2018-08-22T21:28:10.219Z,21.78
2018-08-22T21:30:45.432Z,21.78
2018-08-22T21:33:17.868Z,21.82
2018-08-22T21:35:48.325Z,21.84
2018-08-22T21:38:18.780Z,21.88
2018-08-22T21:40:49.187Z,21.86
2018-08-22T21:43:19.895Z,21.86
2018-08-22T21:45:54.225Z,21.84
2018-08-22T21:48:26.543Z,21.88
2018-08-22T21:50:57.047Z,21.78
2018-08-22T21:53:28.263Z,21.57
2018-08-22T21:56:00.256Z,21.60
2018-08-22T21:58:31.246Z,21.61
2018-08-22T22:01:02.895Z,21.54
2018-08-22T22:03:33.376Z,21.61
2018-08-22T22:06:04.808Z,21.85
2018-08-22T22:08:35.024Z,21.99
2018-08-22T22:11:06.990Z,22.03
2018-08-22T22:13:41.717Z,22.00
2018-08-22T22:16:12.006Z,21.98
2018-08-22T22:18:42.322Z,21.91
2018-08-22T22:21:16.134Z,21.94
2018-08-22T22:23:47.907Z,21.89
2018-08-22T22:26:23.003Z,21.84
2018-08-22T22:28:54.530Z,21.80
2018-08-22T22:31:43.235Z,21.76
2018-08-22T22:34:13.825Z,21.61
2018-08-22T22:36:44.214Z,21.54
2018-08-22T22:39:46.922Z,21.52
2018-08-22T22:42:28.051Z,21.56
2018-08-22T22:44:59.696Z,21.89
2018-08-22T22:47:32.351Z,22.06
2018-08-22T22:50:03.603Z,22.07
2018-08-22T22:52:41.218Z,22.06
2018-08-22T22:55:12.319Z,22.10
2018-08-22T22:57:44.255Z,22.19
2018-08-22T23:00:17.072Z,22.39
2018-08-22T23:02:53.332Z,22.48
2018-08-22T23:05:27.885Z,22.46
2018-08-22T23:08:04.439Z,22.42
2018-08-22T23:10:35.531Z,22.34
2018-08-22T23:13:06.080Z,22.28
2018-08-22T23:15:37.894Z,22.21
2018-08-22T23:18:09.149Z,22.16
2018-08-22T23:20:42.139Z,22.55
2018-08-22T23:23:33.843Z,23.16
2018-08-22T23:26:12.120Z,23.45
2018-08-22T23:28:47.551Z,23.70
2018-08-22T23:31:19.907Z,23.83
2018-08-22T23:33:50.373Z,23.93
2018-08-22T23:36:20.871Z,24.03
2018-08-22T23:38:58.299Z,24.09
2018-08-22T23:41:29.033Z,23.95
2018-08-22T23:43:59.855Z,24.01
2018-08-22T23:46:31.043Z,23.91
2018-08-22T23:49:01.899Z,23.94
2018-08-22T23:51:33.041Z,23.90
2018-08-22T23:54:04.745Z,24.06
2018-08-22T23:56:35.243Z,24.15
2018-08-22T23:59:05.668Z,24.20
